Terminal Aerodrome Forecast
Issued by NWS

Home | Current Version | Previous Version | Text Only | Print | Product List | Glossary On
Versions: 1 2 3 4 5 6 7 8 9 10 11 12 13
000
FTUS43 KDTX 261128
TAFDET
TAF
KDET 261128Z 2612/2712 20005KT P6SM SCT030 SCT100 BKN250
      TEMPO 2612/2614 5SM HZ BKN030
     FM261400 22010KT P6SM BKN045
     FM261900 22010KT P6SM BKN060 PROB30 2621/2624 2SM TSRA OVC030CB
     FM270100 16005KT P6SM SCT060 BKN120
     FM271000 18005KT 3SM BR SCT120 BKN250=

USA.gov is the U.S. government's official web portal to all federal, state and local government web resources and services.